Terminal Aerodrome Forecast
Issued by NWS Wakefield, VA

Home | Current Version | Previous Version | Text Only | Print | Product List | Glossary On
Versions: 1 2 3 4 5 6 7 8 9 10 11 12 13 14 15 16 17 18 19 20 21 22
494
FTUS41 KAKQ 210539
TAFSBY
TAF
KSBY 210539Z 2106/2206 VRB03KT 5SM BR SCT003
      TEMPO 2108/2111 2SM BR BKN002
     FM211200 17005KT P6SM SCT100
     FM211700 18008KT P6SM SCT040=

USA.gov is the U.S. government's official web portal to all federal, state and local government web resources and services.